Time;durP1;ratioP1;P1;durP2;ratioP2;P2;SDS_P1;SDS_P2;PMS_P1;PMS_P2;Temp;Humidity;BMP_temperature;BMP_pressure;BME280_temperature;BME280_humidity;BME280_pressure;Samples;Min_cycle;Max_cycle;Signal;HPM_P1;HPM_P2
2022/06/21 00:02:17;;;;;;;11.18;6.13;;;;;;;12.63;100.00;101906.13;5069810;28;20031;-79
2022/06/21 00:04:43;;;;;;;12.35;5.70;;;;;;;12.59;100.00;101906.94;5052226;28;20028;-80
2022/06/21 00:07:14;;;;;;;10.27;5.70;;;;;;;12.53;100.00;101903.34;5066608;28;20379;-80
2022/06/21 00:09:40;;;;;;;10.35;5.55;;;;;;;12.45;100.00;101899.19;5107070;28;20016;-78
2022/06/21 00:12:06;;;;;;;10.13;5.70;;;;;;;12.50;100.00;101901.94;5107580;28;20016;-79
2022/06/21 00:14:31;;;;;;;7.78;5.53;;;;;;;12.49;100.00;101894.81;5056300;28;20374;-79
2022/06/21 00:16:56;;;;;;;10.80;5.68;;;;;;;12.52;100.00;101896.19;5069322;28;20425;-78
2022/06/21 00:19:24;;;;;;;13.80;6.57;;;;;;;12.42;100.00;101898.91;5094195;28;20088;-79
2022/06/21 00:21:52;;;;;;;8.52;5.88;;;;;;;12.38;100.00;101892.28;5085742;28;20028;-79
2022/06/21 00:24:18;;;;;;;9.70;6.32;;;;;;;12.36;100.00;101887.03;5081815;28;20088;-81
2022/06/21 00:26:45;;;;;;;10.45;6.30;;;;;;;12.39;100.00;101889.25;5086646;28;20035;-79
2022/06/21 00:29:11;;;;;;;13.43;7.90;;;;;;;12.27;100.00;101894.16;5103335;28;20084;-79
2022/06/21 00:31:42;;;;;;;11.65;8.05;;;;;;;12.20;100.00;101886.16;5062967;28;20024;-80
2022/06/21 00:34:14;;;;;;;13.98;7.80;;;;;;;12.21;100.00;101887.81;5081380;28;20038;-79
2022/06/21 00:36:40;;;;;;;11.27;7.53;;;;;;;12.22;100.00;101877.66;5084998;28;20081;-80
2022/06/21 00:39:07;;;;;;;12.00;7.75;;;;;;;12.16;100.00;101879.53;5065636;28;20035;-80
2022/06/21 00:41:37;;;;;;;11.05;7.35;;;;;;;12.12;100.00;101875.69;5078806;28;20482;-79
2022/06/21 00:44:06;;;;;;;8.95;7.32;;;;;;;12.09;100.00;101871.53;5104443;28;20300;-80
2022/06/21 00:46:38;;;;;;;11.52;7.53;;;;;;;12.01;100.00;101873.97;5072751;28;20123;-80
2022/06/21 00:49:12;;;;;;;12.20;7.55;;;;;;;11.95;100.00;101876.69;5106556;28;20248;-81
2022/06/21 00:51:40;;;;;;;10.80;6.78;;;;;;;11.93;100.00;101867.03;5099556;28;20526;-79
2022/06/21 00:54:21;;;;;;;10.10;6.90;;;;;;;11.95;100.00;101859.34;5086624;28;20027;-81
2022/06/21 00:56:54;;;;;;;9.13;6.55;;;;;;;11.99;100.00;101870.66;5086746;28;20501;-81
2022/06/21 00:59:27;;;;;;;9.70;6.80;;;;;;;11.91;100.00;101866.47;5087565;28;20126;-79
2022/06/21 01:01:59;;;;;;;10.88;6.82;;;;;;;11.81;100.00;101869.97;5101727;28;20032;-80
2022/06/21 01:04:39;;;;;;;9.20;7.00;;;;;;;11.88;100.00;101864.25;5090031;28;20028;-78
2022/06/21 01:07:08;;;;;;;12.45;7.30;;;;;;;11.89;100.00;101857.66;5085116;28;20024;-80
2022/06/21 01:09:46;;;;;;;12.77;7.47;;;;;;;11.82;100.00;101852.38;5088859;28;20462;-80
2022/06/21 01:12:23;;;;;;;11.50;7.75;;;;;;;11.80;100.00;101845.50;5095926;28;20134;-79
2022/06/21 01:15:23;;;;;;;9.30;8.07;;;;;;;11.74;100.00;101853.72;5086647;28;20385;-79
2022/06/21 01:17:54;;;;;;;10.65;7.65;;;;;;;11.70;100.00;101849.03;5062956;28;20058;-81
2022/06/21 01:20:22;;;;;;;11.98;7.18;;;;;;;11.55;100.00;101844.25;5106643;28;20047;-79
2022/06/21 01:22:47;;;;;;;10.05;7.03;;;;;;;11.69;100.00;101845.47;5084920;28;20035;-81
2022/06/21 01:25:16;;;;;;;11.75;7.63;;;;;;;11.66;100.00;101843.22;5108221;28;20028;-80
2022/06/21 01:27:41;;;;;;;11.20;7.60;;;;;;;11.73;100.00;101845.75;5087017;28;20034;-78
2022/06/21 01:30:08;;;;;;;10.68;7.30;;;;;;;11.68;100.00;101846.53;5088131;28;20039;-78
2022/06/21 01:32:41;;;;;;;9.60;7.00;;;;;;;11.58;100.00;101861.03;5088601;28;20076;-81
2022/06/21 01:35:12;;;;;;;;;;;;;;;11.49;100.00;101861.78;5086320;28;20028;-80
2022/06/21 01:37:40;;;;;;;12.60;6.80;;;;;;;11.44;100.00;101864.50;5068948;28;19923;-80
2022/06/21 01:40:18;;;;;;;8.95;6.57;;;;;;;11.50;100.00;101857.97;5089729;28;20108;-79
2022/06/21 01:42:53;;;;;;;11.50;6.60;;;;;;;11.48;100.00;101854.63;5076951;28;20466;-81
2022/06/21 01:45:24;;;;;;;11.48;6.63;;;;;;;11.42;100.00;101870.25;5062023;28;20373;-81
2022/06/21 01:47:56;;;;;;;12.23;6.57;;;;;;;11.44;100.00;101864.50;5084861;28;20103;-81
2022/06/21 01:50:22;;;;;;;11.57;6.90;;;;;;;11.49;100.00;101864.53;5097469;28;20024;-80
2022/06/21 01:52:51;;;;;;;10.75;6.65;;;;;;;11.41;100.00;101857.59;5100533;28;20024;-81
2022/06/21 01:55:24;;;;;;;8.80;6.53;;;;;;;11.39;100.00;101857.84;5105521;28;20030;-80
2022/06/21 01:57:50;;;;;;;;;;;;;;;11.26;100.00;101855.56;5093232;28;20047;-81
2022/06/21 02:00:16;;;;;;;9.68;6.05;;;;;;;11.36;100.00;101858.41;5082917;28;20247;-81
2022/06/21 02:02:46;;;;;;;10.15;6.03;;;;;;;11.37;100.00;101856.47;5085266;28;20027;-80
2022/06/21 02:05:27;;;;;;;10.65;6.63;;;;;;;11.27;100.00;101859.97;5097418;28;20035;-81
2022/06/21 02:07:56;;;;;;;10.30;6.70;;;;;;;11.32;100.00;101879.22;5101672;28;20070;-80
2022/06/21 02:10:32;;;;;;;9.38;6.53;;;;;;;11.28;100.00;101871.78;5106190;28;20028;-81
2022/06/21 02:13:07;;;;;;;9.85;6.50;;;;;;;11.22;100.00;101866.25;5102589;28;20459;-80
2022/06/21 02:15:46;;;;;;;9.07;6.40;;;;;;;11.09;100.00;101868.59;5064316;28;20038;-80
2022/06/21 02:18:16;;;;;;;8.73;6.97;;;;;;;11.18;100.00;101858.78;5072357;28;20049;-80
2022/06/21 02:20:54;;;;;;;11.20;6.45;;;;;;;11.23;100.00;101861.56;5075614;28;20035;-81
2022/06/21 02:23:22;;;;;;;10.75;7.05;;;;;;;11.29;100.00;101865.19;5081435;28;20103;-79
2022/06/21 02:25:50;;;;;;;9.88;7.35;;;;;;;11.29;100.00;101852.28;5064895;28;20028;-80
2022/06/21 02:28:18;;;;;;;8.73;6.78;;;;;;;11.30;100.00;101840.25;5070027;28;20019;-80
2022/06/21 02:30:44;;;;;;;12.35;7.30;;;;;;;11.34;100.00;101838.59;5069592;28;20024;-80
2022/06/21 02:33:16;;;;;;;10.40;7.45;;;;;;;11.30;100.00;101836.66;5047453;28;20085;-80
2022/06/21 02:36:12;;;;;;;8.63;6.80;;;;;;;11.22;100.00;101830.56;5089051;28;20027;-81
2022/06/21 02:38:54;;;;;;;10.27;7.22;;;;;;;11.27;100.00;101826.22;5080945;28;20051;-79
2022/06/21 02:41:29;;;;;;;11.25;7.45;;;;;;;11.06;100.00;101816.97;5067282;28;20192;-81
2022/06/21 02:44:23;;;;;;;11.07;7.47;;;;;;;11.08;100.00;101807.38;5103702;28;20317;-81
2022/06/21 02:47:05;;;;;;;12.88;8.02;;;;;;;11.16;100.00;101808.81;5103625;28;20106;-81
2022/06/21 02:49:38;;;;;;;13.57;7.57;;;;;;;11.08;100.00;101803.81;5077101;28;20097;-82
2022/06/21 02:52:14;;;;;;;12.57;7.75;;;;;;;10.93;100.00;101793.53;5076644;28;20019;-81
2022/06/21 02:54:47;;;;;;;10.98;6.95;;;;;;;11.11;100.00;101782.16;5109572;28;20102;-81
2022/06/21 02:57:19;;;;;;;;;;;;;;;10.87;100.00;101767.16;5091877;28;20020;-80
2022/06/21 02:59:47;;;;;;;9.13;6.40;;;;;;;10.89;100.00;101765.81;5068195;28;20549;-81
2022/06/21 03:02:16;;;;;;;10.88;7.00;;;;;;;11.02;100.00;101762.63;5088342;28;20035;-81
2022/06/21 03:04:50;;;;;;;7.85;6.25;;;;;;;10.96;100.00;101765.59;5085373;28;20023;-81
2022/06/21 03:07:28;;;;;;;6.68;5.80;;;;;;;11.02;100.00;101778.25;5104240;28;20031;-81
2022/06/21 03:09:55;;;;;;;7.65;6.10;;;;;;;11.07;100.00;101777.44;5107343;28;20024;-81
2022/06/21 03:12:24;;;;;;;8.57;6.50;;;;;;;11.02;100.00;101781.00;5089287;28;20020;-81
2022/06/21 03:14:52;;;;;;;9.40;6.68;;;;;;;11.11;100.00;101789.56;5075377;28;20093;-82
2022/06/21 03:17:22;;;;;;;9.35;6.55;;;;;;;11.08;100.00;101784.59;5089619;28;20023;-81
2022/06/21 03:19:52;;;;;;;9.95;6.97;;;;;;;11.09;100.00;101789.84;5108219;28;20069;-81
2022/06/21 03:22:26;;;;;;;10.32;6.78;;;;;;;11.03;100.00;101780.75;5086585;28;20365;-81
2022/06/21 03:24:55;;;;;;;9.60;7.05;;;;;;;11.04;100.00;101785.13;5089967;28;20165;-81
2022/06/21 03:27:35;;;;;;;11.27;6.50;;;;;;;11.00;100.00;101783.16;5107572;28;20390;-81
2022/06/21 03:30:02;;;;;;;9.63;7.05;;;;;;;10.97;100.00;101783.69;5105293;28;20450;-81
2022/06/21 03:32:33;;;;;;;10.82;7.40;;;;;;;10.96;100.00;101782.88;5089482;28;20211;-83
2022/06/21 03:35:00;;;;;;;10.65;7.18;;;;;;;10.98;100.00;101794.41;5084498;28;20036;-81
2022/06/21 03:37:26;;;;;;;8.45;7.53;;;;;;;10.97;100.00;101790.03;5062855;28;20050;-81
2022/06/21 03:42:41;;;;;;;10.35;7.35;;;;;;;10.99;100.00;101779.59;5086076;28;20460;-82
2022/06/21 03:45:33;;;;;;;9.82;7.57;;;;;;;10.98;100.00;101766.16;5098380;28;20226;-82
2022/06/21 03:48:27;;;;;;;10.10;7.25;;;;;;;10.95;100.00;101753.78;5087772;28;20023;-81
2022/06/21 03:51:03;;;;;;;10.68;7.45;;;;;;;10.92;100.00;101743.34;5071859;28;20108;-80
2022/06/21 03:53:34;;;;;;;11.27;6.85;;;;;;;10.95;100.00;101739.22;5082572;28;20130;-82
2022/06/21 03:56:08;;;;;;;12.45;8.30;;;;;;;10.95;100.00;101742.81;5071153;28;20024;-82
2022/06/21 03:58:57;;;;;;;10.13;7.82;;;;;;;10.97;100.00;101750.75;5069020;28;20111;-83
2022/06/21 04:01:38;;;;;;;10.52;7.50;;;;;;;11.00;100.00;101761.22;5092829;28;20028;-82
2022/06/21 04:04:25;;;;;;;11.90;7.68;;;;;;;11.02;100.00;101761.81;5107079;28;20035;-83
2022/06/21 04:07:03;;;;;;;12.07;7.28;;;;;;;10.93;100.00;101750.47;5084766;28;20071;-80
2022/06/21 04:09:46;;;;;;;11.65;7.63;;;;;;;11.01;100.00;101743.66;5084672;28;20032;-83
2022/06/21 04:12:51;;;;;;;12.17;7.70;;;;;;;11.01;100.00;101740.94;5094652;28;20024;-83
2022/06/21 04:15:23;;;;;;;11.57;7.28;;;;;;;11.08;100.00;101736.03;5071138;28;20047;-84
2022/06/21 04:18:06;;;;;;;13.02;8.50;;;;;;;10.90;100.00;101728.22;5076490;28;20026;-82
2022/06/21 04:21:12;;;;;;;10.85;8.18;;;;;;;10.83;100.00;101726.50;5095598;28;20031;-81
2022/06/21 04:23:50;;;;;;;10.70;7.95;;;;;;;11.06;100.00;101719.00;5078654;28;20089;-82
2022/06/21 04:26:36;;;;;;;10.18;7.60;;;;;;;11.12;100.00;101719.88;5088021;28;20031;-82
2022/06/21 04:29:13;;;;;;;10.75;7.30;;;;;;;11.34;100.00;101730.72;5075963;28;20059;-82
2022/06/21 04:32:03;;;;;;;9.20;7.93;;;;;;;11.39;100.00;101741.72;5088383;28;20043;-82
2022/06/21 04:34:38;;;;;;;9.90;7.65;;;;;;;11.54;100.00;101741.81;5087983;28;20024;-84
2022/06/21 04:37:13;;;;;;;13.65;8.05;;;;;;;11.61;100.00;101738.84;5095221;28;20103;-82
2022/06/21 04:40:00;;;;;;;8.32;7.45;;;;;;;11.71;100.00;101738.06;5083569;28;20036;-83
2022/06/21 04:42:39;;;;;;;14.60;8.32;;;;;;;11.81;100.00;101735.34;5072488;28;20044;-82
2022/06/21 04:45:15;;;;;;;9.48;7.85;;;;;;;11.92;100.00;101737.06;5078022;28;20024;-82
2022/06/21 04:47:44;;;;;;;12.98;8.13;;;;;;;11.97;100.00;101732.69;5086463;28;20028;-81
2022/06/21 04:50:23;;;;;;;14.40;8.73;;;;;;;12.02;100.00;101728.03;5094462;28;20019;-81
2022/06/21 04:52:55;;;;;;;11.82;7.53;;;;;;;12.13;100.00;101737.97;5080286;28;20111;-81
2022/06/21 04:55:29;;;;;;;11.77;7.70;;;;;;;12.22;100.00;101740.19;5069327;28;20482;-81
2022/06/21 04:57:55;;;;;;;15.18;10.00;;;;;;;12.27;100.00;101727.25;5064078;28;20027;-82
2022/06/21 05:00:21;;;;;;;15.90;9.27;;;;;;;12.39;100.00;101723.44;5069936;28;20028;-82
2022/06/21 05:02:52;;;;;;;12.75;9.68;;;;;;;12.47;100.00;101729.22;5050868;28;20434;-82
2022/06/21 05:05:21;;;;;;;13.63;9.30;;;;;;;12.60;100.00;101738.03;5088606;28;20031;-82
2022/06/21 05:07:50;;;;;;;13.27;8.98;;;;;;;12.65;100.00;101729.78;5106925;28;20047;-82
2022/06/21 05:10:21;;;;;;;15.50;10.00;;;;;;;12.73;100.00;101732.00;5077907;28;20027;-83
2022/06/21 05:12:49;;;;;;;16.50;10.70;;;;;;;12.88;100.00;101737.47;5076179;28;20020;-81
2022/06/21 05:15:28;;;;;;;16.17;10.80;;;;;;;12.91;100.00;101727.03;5044731;28;20281;-81
2022/06/21 05:18:00;;;;;;;18.42;13.02;;;;;;;12.92;100.00;101731.44;5084838;28;20099;-81
2022/06/21 05:20:34;;;;;;;22.10;11.48;;;;;;;12.84;100.00;101728.13;5103748;28;20051;-81
2022/06/21 05:23:04;;;;;;;19.60;11.57;;;;;;;13.09;100.00;101731.16;5073082;28;20028;-83
2022/06/21 05:25:41;;;;;;;18.13;12.00;;;;;;;13.15;100.00;101744.63;5084263;28;20122;-81
2022/06/21 05:28:22;;;;;;;17.40;11.32;;;;;;;13.39;100.00;101747.63;5102943;28;20027;-81
2022/06/21 05:30:51;;;;;;;15.75;10.93;;;;;;;13.51;100.00;101739.09;5065173;28;20122;-80
2022/06/21 05:33:24;;;;;;;15.77;10.80;;;;;;;13.55;100.00;101747.59;5084047;28;20230;-80
2022/06/21 05:35:50;;;;;;;16.52;10.20;;;;;;;13.69;100.00;101756.09;5061994;28;20019;-80
2022/06/21 05:38:23;;;;;;;15.38;10.02;;;;;;;13.76;100.00;101751.13;5063558;28;20233;-80
2022/06/21 05:41:29;;;;;;;14.43;10.38;;;;;;;13.78;100.00;101754.41;5085856;28;20086;-81
2022/06/21 05:44:01;;;;;;;14.35;8.57;;;;;;;13.76;100.00;101754.69;5086293;28;20465;-81
2022/06/21 05:46:29;;;;;;;13.95;8.60;;;;;;;13.90;100.00;101759.59;5063528;28;20135;-81
2022/06/21 05:48:57;;;;;;;15.15;10.77;;;;;;;13.95;100.00;101752.16;5083659;28;20312;-80
2022/06/21 05:51:32;;;;;;;13.00;9.60;;;;;;;13.87;100.00;101749.13;5063796;28;20109;-80
2022/06/21 05:54:00;;;;;;;17.35;10.73;;;;;;;13.86;100.00;101751.06;5082196;28;20031;-78
2022/06/21 05:56:29;;;;;;;14.48;9.55;;;;;;;13.97;100.00;101752.69;5083091;28;20492;-82
2022/06/21 05:59:05;;;;;;;13.57;9.18;;;;;;;14.11;100.00;101750.13;5086517;28;20027;-81
2022/06/21 06:01:43;;;;;;;15.02;9.70;;;;;;;14.25;100.00;101749.47;5101278;28;20027;-81
2022/06/21 06:04:15;;;;;;;16.67;8.00;;;;;;;14.22;100.00;101759.16;5072521;28;20024;-80
2022/06/21 06:06:43;;;;;;;12.00;7.47;;;;;;;14.29;100.00;101751.41;5102795;28;20076;-81
2022/06/21 06:09:19;;;;;;;16.23;7.57;;;;;;;14.38;100.00;101748.03;5080368;28;20358;-81
2022/06/21 06:12:03;;;;;;;11.88;6.55;;;;;;;14.35;100.00;101746.69;5095881;28;20022;-80
2022/06/21 06:14:45;;;;;;;15.77;7.57;;;;;;;14.43;100.00;101748.84;5097670;28;20028;-81
2022/06/21 06:17:28;;;;;;;13.15;6.32;;;;;;;14.34;100.00;101750.53;5072958;28;20032;-81
2022/06/21 06:20:02;;;;;;;12.82;7.18;;;;;;;14.52;100.00;101749.88;5099449;28;20096;-81
2022/06/21 06:22:56;;;;;;;10.63;6.60;;;;;;;14.66;100.00;101761.13;5068420;28;20043;-81
2022/06/21 06:25:31;;;;;;;9.68;6.80;;;;;;;14.68;100.00;101758.91;5050627;28;20418;-80
2022/06/21 06:28:10;;;;;;;14.25;8.27;;;;;;;14.80;100.00;101758.53;5109886;28;20106;-82
2022/06/21 06:31:11;;;;;;;13.60;7.80;;;;;;;14.93;100.00;101759.81;5083569;28;20031;-80
2022/06/21 06:33:43;;;;;;;11.85;7.97;;;;;;;15.09;100.00;101768.78;5100781;28;20087;-81
2022/06/21 06:36:14;;;;;;;14.27;7.13;;;;;;;15.24;100.00;101765.03;5099407;28;20027;-80
2022/06/21 06:38:41;;;;;;;11.57;6.93;;;;;;;15.36;100.00;101768.22;5117346;28;20080;-82
2022/06/21 06:41:14;;;;;;;14.40;7.18;;;;;;;15.48;100.00;101769.75;5098833;28;20055;-81
2022/06/21 06:43:44;;;;;;;13.55;7.78;;;;;;;15.48;100.00;101780.81;5089272;28;20449;-79
2022/06/21 06:46:17;;;;;;;13.70;8.15;;;;;;;15.53;100.00;101769.75;5107992;28;20419;-80
2022/06/21 06:48:43;;;;;;;;;;;;;;;15.24;100.00;101781.63;5079903;28;20024;-77
2022/06/21 06:51:15;;;;;;;10.30;6.90;;;;;;;15.52;100.00;101782.72;5105912;28;20599;-79
2022/06/21 06:53:46;;;;;;;12.40;7.13;;;;;;;15.50;100.00;101779.44;5089089;28;21027;-81
2022/06/21 06:56:17;;;;;;;8.73;5.45;;;;;;;15.70;100.00;101781.13;5087202;28;20382;-81
2022/06/21 06:58:51;;;;;;;14.88;7.57;;;;;;;15.83;100.00;101787.13;5100698;28;20020;-80
2022/06/21 07:01:24;;;;;;;10.65;6.97;;;;;;;15.98;100.00;101778.63;5076587;28;20344;-81
2022/06/21 07:03:49;;;;;;;;;;;;;;;15.99;100.00;101786.63;5081025;28;20067;-82
2022/06/21 07:06:19;;;;;;;14.95;6.28;;;;;;;16.18;100.00;101785.81;5082875;28;19951;-79
2022/06/21 07:08:50;;;;;;;10.65;5.95;;;;;;;16.27;100.00;101786.81;5072324;28;20031;-81
2022/06/21 07:11:24;;;;;;;15.60;6.78;;;;;;;16.35;100.00;101780.63;5090747;28;20126;-81
2022/06/21 07:13:50;;;;;;;11.63;6.45;;;;;;;16.37;100.00;101774.78;5072941;28;20444;-81
2022/06/21 07:16:22;;;;;;;13.52;6.00;;;;;;;16.48;100.00;101776.28;5077544;28;20067;-82
2022/06/21 07:18:50;;;;;;;9.50;4.82;;;;;;;16.60;100.00;101777.78;5083640;28;20019;-80
2022/06/21 07:21:18;;;;;;;8.95;5.55;;;;;;;16.97;100.00;101776.94;5083448;28;20106;-80
2022/06/21 07:23:44;;;;;;;9.80;5.25;;;;;;;17.10;100.00;101780.84;5080388;28;20035;-78
2022/06/21 07:26:13;;;;;;;11.85;4.88;;;;;;;17.07;100.00;101778.72;5090202;28;20020;-77
2022/06/21 07:29:01;;;;;;;9.80;4.60;;;;;;;17.10;100.00;101780.84;5100900;28;20027;-80
2022/06/21 07:31:38;;;;;;;9.70;4.32;;;;;;;17.57;100.00;101780.84;5071095;28;20089;-80
2022/06/21 07:34:13;;;;;;;8.00;4.38;;;;;;;17.69;100.00;101780.34;5087670;28;20359;-81
2022/06/21 07:36:57;;;;;;;9.98;4.30;;;;;;;17.74;100.00;101777.44;5096014;28;20031;-77
2022/06/21 07:39:41;;;;;;;11.25;4.13;;;;;;;17.80;100.00;101782.59;5079371;28;20075;-80
2022/06/21 07:42:18;;;;;;;9.95;4.55;;;;;;;17.54;100.00;101773.13;5092200;28;20571;-78
2022/06/21 07:45:35;;;;;;;9.05;5.00;;;;;;;17.85;100.00;101776.13;5089022;28;20038;-80
2022/06/21 07:48:08;;;;;;;8.93;4.45;;;;;;;18.23;100.00;101762.00;5085809;28;20043;-78
2022/06/21 07:50:51;;;;;;;8.15;4.55;;;;;;;18.47;100.00;101763.72;5067133;28;20035;-78
2022/06/21 07:53:22;;;;;;;9.05;4.50;;;;;;;18.34;100.00;101757.88;5102587;28;20129;-76
2022/06/21 07:55:57;;;;;;;13.02;4.65;;;;;;;18.51;100.00;101761.94;5086638;28;20035;-78
2022/06/21 07:58:34;;;;;;;10.43;5.35;;;;;;;18.65;100.00;101745.25;5077900;28;20053;-79
2022/06/21 08:06:53;;;;;;;6.10;3.20;;;;;;;18.81;100.00;101742.91;5103327;28;20550;-79
2022/06/21 08:09:22;;;;;;;5.20;3.35;;;;;;;19.12;100.00;101745.75;5051192;28;20081;-79
2022/06/21 08:11:50;;;;;;;9.98;4.20;;;;;;;19.31;100.00;101739.94;5085590;28;20316;-79
2022/06/21 08:14:17;;;;;;;8.50;3.63;;;;;;;19.42;100.00;101743.28;5085796;28;20036;-78
2022/06/21 08:16:43;;;;;;;6.68;4.05;;;;;;;19.74;100.00;101746.81;5067569;28;20300;-78
2022/06/21 08:19:14;;;;;;;8.32;4.10;;;;;;;19.59;100.00;101742.50;5086121;28;20027;-77
2022/06/21 08:22:02;;;;;;;9.77;4.38;;;;;;;19.60;100.00;101739.41;5083953;28;20032;-78
2022/06/21 08:24:52;;;;;;;8.05;4.30;;;;;;;19.45;100.00;101743.44;5078854;28;20184;-79
2022/06/21 08:27:40;;;;;;;11.02;4.18;;;;;;;18.94;100.00;101746.75;5063184;28;20023;-77
2022/06/21 08:30:17;;;;;;;7.70;4.00;;;;;;;19.76;100.00;101730.66;5067540;28;20191;-79
2022/06/21 08:33:02;;;;;;;8.15;4.13;;;;;;;19.73;100.00;101720.97;5083499;28;20023;-80
2022/06/21 08:36:03;;;;;;;6.70;3.20;;;;;;;19.98;100.00;101727.75;5068508;28;20032;-77
2022/06/21 08:38:35;;;;;;;7.30;3.45;;;;;;;19.70;100.00;101718.00;5050734;28;20216;-78
2022/06/21 08:41:51;;;;;;;8.07;3.67;;;;;;;19.94;100.00;101714.78;5068374;28;20052;-78
2022/06/21 08:44:17;;;;;;;8.80;3.67;;;;;;;20.76;100.00;101723.38;5083019;28;20299;-78
2022/06/21 08:47:01;;;;;;;6.75;3.42;;;;;;;19.91;100.00;101726.59;5065820;28;20023;-78
2022/06/21 08:49:49;;;;;;;9.43;3.38;;;;;;;20.33;100.00;101721.38;5084741;28;20032;-78
2022/06/21 08:52:27;;;;;;;7.70;3.25;;;;;;;19.82;100.00;101718.22;5059341;28;20244;-78
2022/06/21 08:55:04;;;;;;;6.30;2.70;;;;;;;20.55;100.00;101717.63;5068119;28;20023;-79
2022/06/21 08:58:02;;;;;;;7.97;2.95;;;;;;;20.45;100.00;101721.56;5082841;28;20729;-78
2022/06/21 09:00:35;;;;;;;7.53;3.20;;;;;;;21.10;100.00;101718.84;5097217;28;20138;-78
2022/06/21 09:03:30;;;;;;;4.63;2.65;;;;;;;20.95;100.00;101720.19;5096044;28;20020;-77
2022/06/21 09:06:01;;;;;;;4.07;2.63;;;;;;;21.07;100.00;101719.50;5083058;28;20036;-80
2022/06/21 09:08:41;;;;;;;7.18;2.40;;;;;;;21.28;100.00;101711.25;5055203;28;20532;-77
2022/06/21 09:11:31;;;;;;;5.45;2.60;;;;;;;21.19;100.00;101711.28;5065177;28;20032;-80
2022/06/21 09:14:19;;;;;;;4.05;2.30;;;;;;;22.00;100.00;101706.59;5075304;28;20028;-77
2022/06/21 09:17:00;;;;;;;5.38;2.60;;;;;;;22.10;100.00;101699.78;5085520;28;20472;-78
2022/06/21 09:19:45;;;;;;;5.60;2.33;;;;;;;21.98;100.00;101700.53;5082846;28;20024;-77
2022/06/21 09:22:56;;;;;;;4.78;2.60;;;;;;;21.50;100.00;101704.63;5080227;28;20381;-78
2022/06/21 09:25:40;;;;;;;4.53;2.90;;;;;;;21.20;100.00;101700.94;5049338;28;20039;-78
2022/06/21 09:28:44;;;;;;;6.68;2.78;;;;;;;20.64;100.00;101698.94;5097128;28;20024;-78
2022/06/21 09:31:39;;;;;;;6.80;2.50;;;;;;;20.39;100.00;101697.81;5064249;28;20279;-79
2022/06/21 09:34:17;;;;;;;6.97;2.80;;;;;;;20.62;100.00;101697.63;5102224;28;20023;-78
2022/06/21 09:36:55;;;;;;;7.10;2.90;;;;;;;21.36;100.00;101698.41;5083847;28;20027;-78
2022/06/21 09:39:34;;;;;;;3.95;2.20;;;;;;;21.25;100.00;101695.16;5081867;28;20070;-77
2022/06/21 09:42:09;;;;;;;7.20;2.78;;;;;;;20.89;100.00;101691.69;5070487;28;20047;-77
2022/06/21 09:44:46;;;;;;;7.28;2.85;;;;;;;20.80;100.00;101699.25;5083625;28;20031;-78
2022/06/21 09:47:30;;;;;;;5.68;2.65;;;;;;;21.86;100.00;101697.69;5063040;28;20024;-78
2022/06/21 09:50:23;;;;;;;4.53;2.65;;;;;;;23.29;100.00;101684.50;5084233;28;20032;-79
2022/06/21 09:53:00;;;;;;;6.18;2.60;;;;;;;24.07;97.01;101684.56;5061180;28;20095;-78
2022/06/21 09:56:02;;;;;;;4.32;2.20;;;;;;;23.71;95.07;101678.69;5098950;28;20019;-76
2022/06/21 09:58:34;;;;;;;7.13;3.40;;;;;;;22.33;98.03;101668.75;5081271;28;20152;-79
2022/06/21 10:01:12;;;;;;;5.90;2.47;;;;;;;22.69;97.92;101670.84;5066266;28;20584;-77
2022/06/21 10:04:10;;;;;;;6.22;2.60;;;;;;;21.81;99.68;101675.56;5082290;28;20139;-78
2022/06/21 10:06:39;;;;;;;4.10;2.38;;;;;;;22.22;100.00;101671.13;5018855;28;20521;-79
2022/06/21 10:09:04;;;;;;;6.30;2.63;;;;;;;22.87;97.67;101667.88;5084165;28;20077;-79
2022/06/21 10:11:57;;;;;;;6.93;2.35;;;;;;;23.26;93.87;101657.22;5066351;28;20020;-78
2022/06/21 10:14:51;;;;;;;8.32;2.38;;;;;;;24.36;91.79;101655.41;5066628;28;20046;-78
2022/06/21 10:17:35;;;;;;;5.13;2.00;;;;;;;25.13;90.21;101655.06;5064815;28;20035;-77
2022/06/21 10:20:01;;;;;;;5.13;2.60;;;;;;;24.41;89.98;101649.53;5085830;28;20027;-77
2022/06/21 10:22:44;;;;;;;3.92;2.65;;;;;;;23.03;91.90;101648.44;5080039;28;20505;-79
2022/06/21 10:25:33;;;;;;;4.20;2.03;;;;;;;23.20;94.26;101647.44;5067292;28;20032;-79
2022/06/21 10:28:36;;;;;;;7.28;3.75;;;;;;;22.37;100.00;101652.94;5065636;28;20020;-77
2022/06/21 10:31:24;;;;;;;8.25;3.80;;;;;;;21.98;100.00;101653.06;5042616;28;20032;-77
2022/06/21 10:33:55;;;;;;;10.55;4.28;;;;;;;20.27;100.00;101658.69;5093545;28;20104;-75
2022/06/21 10:36:26;;;;;;;7.22;4.38;;;;;;;20.49;100.00;101643.72;5078564;28;20055;-75
2022/06/21 10:38:55;;;;;;;9.00;4.00;;;;;;;20.40;100.00;101649.31;5083712;28;20023;-78
2022/06/21 10:42:46;;;;;;;11.48;4.38;;;;;;;21.01;100.00;101653.97;5073119;28;20039;-76
2022/06/21 10:44:51;;;;;;;10.52;4.95;;;;;;;20.33;100.00;101652.63;5061908;28;20040;-76
2022/06/21 10:48:01;;;;;;;9.57;4.90;;;;;;;19.01;100.00;101649.88;5020644;28;20033;-75
2022/06/21 10:50:36;;;;;;;9.20;4.78;;;;;;;19.61;100.00;101651.22;5034277;28;20173;-77
2022/06/21 10:53:36;;;;;;;9.88;4.50;;;;;;;18.79;100.00;101656.25;5061046;28;20474;-78
2022/06/21 10:59:01;;;;;;;10.15;4.97;;;;;;;20.45;100.00;101656.69;5078802;28;20089;-77
2022/06/21 11:01:48;;;;;;;9.10;4.40;;;;;;;21.14;100.00;101650.13;5081532;28;20032;-77
2022/06/21 11:04:39;;;;;;;7.82;4.20;;;;;;;22.03;100.00;101641.69;5073239;28;20031;-77
2022/06/21 11:07:07;;;;;;;7.93;4.22;;;;;;;22.33;100.00;101630.47;5083435;28;20028;-78
2022/06/21 11:09:51;;;;;;;8.68;4.50;;;;;;;22.70;100.00;101638.97;5084830;28;20044;-77
2022/06/21 11:15:51;;;;;;;10.20;4.82;;;;;;;21.48;100.00;101643.59;5062103;28;20085;-79
2022/06/21 11:18:25;;;;;;;9.52;4.90;;;;;;;21.06;100.00;101639.84;5065838;28;20490;-77
2022/06/21 11:21:09;;;;;;;10.90;4.57;;;;;;;21.89;100.00;101635.59;5084738;28;20093;-77
2022/06/21 11:23:53;;;;;;;10.55;5.30;;;;;;;21.47;100.00;101641.09;5083410;28;20125;-79
2022/06/21 11:27:00;;;;;;;12.35;4.82;;;;;;;22.19;100.00;101630.72;5085630;28;20016;-78
2022/06/21 11:29:40;;;;;;;12.02;5.45;;;;;;;20.98;100.00;101632.31;5068879;28;20089;-78
2022/06/21 11:32:21;;;;;;;12.38;5.68;;;;;;;20.99;100.00;101639.50;5069542;28;20393;-78
2022/06/21 11:34:58;;;;;;;10.52;5.03;;;;;;;21.31;100.00;101638.06;5073383;28;20036;-77
2022/06/21 11:37:27;;;;;;;7.25;4.43;;;;;;;22.72;100.00;101622.66;5082250;28;20031;-76
2022/06/21 11:40:16;;;;;;;8.50;4.03;;;;;;;22.97;100.00;101622.69;5085576;28;20103;-77
2022/06/21 11:42:56;;;;;;;11.38;5.05;;;;;;;22.12;100.00;101646.41;5105495;28;20386;-79
2022/06/21 11:45:46;;;;;;;9.02;4.40;;;;;;;22.77;100.00;101632.78;5091949;28;20024;-78
2022/06/21 11:48:51;;;;;;;10.27;4.82;;;;;;;23.08;100.00;101620.28;5070759;28;20061;-77
2022/06/21 11:51:42;;;;;;;12.25;5.35;;;;;;;23.32;100.00;101619.47;5054897;28;20031;-78
2022/06/21 11:54:17;;;;;;;11.35;5.43;;;;;;;22.99;100.00;101620.38;5083925;28;20028;-79
2022/06/21 11:57:00;;;;;;;11.90;5.43;;;;;;;21.06;100.00;101628.69;5076399;28;20028;-78
2022/06/21 11:59:49;;;;;;;11.88;5.40;;;;;;;21.94;100.00;101620.59;5077093;28;20043;-76
2022/06/21 12:02:48;;;;;;;8.00;4.95;;;;;;;21.80;100.00;101618.91;5070137;28;20165;-80
2022/06/21 12:05:39;;;;;;;11.00;5.03;;;;;;;21.78;100.00;101609.25;5087041;28;20127;-77
2022/06/21 12:08:13;;;;;;;11.57;4.55;;;;;;;20.38;100.00;101621.81;5074320;28;20023;-77
2022/06/21 12:10:57;;;;;;;8.82;4.70;;;;;;;20.79;100.00;101605.69;5098158;28;20118;-79
2022/06/21 12:13:38;;;;;;;9.75;5.22;;;;;;;21.89;100.00;101592.88;5093555;28;20103;-77
2022/06/21 12:16:21;;;;;;;11.07;4.70;;;;;;;23.12;100.00;101599.66;5105529;28;20030;-77